Time;durP1;ratioP1;P1;durP2;ratioP2;P2;SDS_P1;SDS_P2;PMS_P1;PMS_P2;Temp;Humidity;BMP_temperature;BMP_pressure;BME280_temperature;BME280_humidity;BME280_pressure;Samples;Min_cycle;Max_cycle;Signal;HPM_P1;HPM_P2
2024/04/25 00:02:08;;;;;;;;;;;;;;;10.37;65.42;100057.63;5479555;25;97193;-65
2024/04/25 00:04:36;;;;;;;;;;;;;;;10.42;65.62;100049.50;5494371;25;94703;-65
2024/04/25 00:07:04;;;;;;;;;;;;;;;10.39;65.55;100047.00;5481923;25;95375;-65
2024/04/25 00:09:32;;;;;;;;;;;;;;;10.42;65.60;100036.31;5484564;25;95447;-66
2024/04/25 00:12:00;;;;;;;;;;;;;;;10.55;65.20;100045.38;5482501;25;97156;-66
2024/04/25 00:14:31;;;;;;;;;;;;;;;10.48;65.19;100038.66;5492332;25;94719;-65
2024/04/25 00:16:58;;;;;;;;;;;;;;;10.60;64.58;100046.00;5488244;25;94900;-66
2024/04/25 00:19:26;;;;;;;;;;;;;;;10.60;64.87;100040.72;5494278;25;96873;-65
2024/04/25 00:21:54;;;;;;;;;;;;;;;10.70;64.19;100030.56;5485634;25;97138;-66
2024/04/25 00:24:23;;;;;;;;;;;;;;;10.73;63.87;100036.56;5492792;25;94996;-65
2024/04/25 00:26:51;;;;;;;;;;;;;;;10.60;64.83;100035.44;5484607;25;95191;-66
2024/04/25 00:29:19;;;;;;;;;;;;;;;10.63;64.71;100037.91;5479449;25;96675;-68
2024/04/25 00:31:49;;;;;;;;;;;;;;;10.67;64.68;100025.44;5481265;25;96795;-67
2024/04/25 00:34:17;;;;;;;;;;;;;;;10.61;64.57;100028.38;5497090;25;94804;-65
2024/04/25 00:36:45;;;;;;;;;;;;;;;10.55;64.87;100032.16;5493747;25;94886;-65
2024/04/25 00:39:13;;;;;;;;;;;;;;;10.37;65.24;100039.13;5476718;25;98006;-66
2024/04/25 00:41:41;;;;;;;;;;;;;;;10.46;65.40;100031.72;5470896;25;99693;-66
2024/04/25 00:44:09;;;;;;;;;;;;;;;10.38;65.07;100040.00;5467641;25;94781;-65
2024/04/25 00:46:37;;;;;;;;;;;;;;;10.15;66.28;100034.88;5478934;25;94954;-66
2024/04/25 00:49:08;;;;;;;;;;;;;;;10.35;65.24;100032.22;5468109;25;95897;-65
2024/04/25 00:51:36;;;;;;;;;;;;;;;10.21;66.13;100037.25;5478329;25;97607;-66
2024/04/25 00:54:07;;;;;;;;;;;;;;;10.18;66.41;100029.47;5472985;25;99212;-65
2024/04/25 00:56:35;;;;;;;;;;;;;;;10.31;65.06;100026.19;5485362;25;95037;-65
2024/04/25 00:59:04;;;;;;;;;;;;;;;10.21;65.38;100031.97;5486395;25;99883;-65
2024/04/25 01:01:34;;;;;;;;;;;;;;;10.18;65.45;100021.53;5478038;25;96700;-65
2024/04/25 01:04:02;;;;;;;;;;;;;;;10.20;65.30;100022.34;5481176;25;94806;-66
2024/04/25 01:06:34;;;;;;;;;;;;;;;10.25;65.21;100021.22;5478620;25;94848;-65
2024/04/25 01:09:02;;;;;;;;;;;;;;;10.29;65.22;100014.88;5477925;25;96096;-65
2024/04/25 01:11:32;;;;;;;;;;;;;;;10.44;65.06;100013.28;5478286;25;94956;-65
2024/04/25 01:14:00;;;;;;;;;;;;;;;10.46;65.01;100003.53;5476592;25;94748;-66
2024/04/25 01:16:28;;;;;;;;;;;;;;;10.24;65.47;100001.00;5475753;25;95449;-66
2024/04/25 01:18:56;;;;;;;;;;;;;;;10.18;66.33;100011.00;5467751;25;97117;-65
2024/04/25 01:21:24;;;;;;;;;;;;;;;10.05;66.78;100004.50;5474017;25;95747;-66
2024/04/25 01:23:57;;;;;;;;;;;;;;;9.86;68.28;100009.75;5475312;25;94857;-67
2024/04/25 01:26:28;;;;;;;;;;;;;;;9.95;68.43;100009.38;5469021;25;95250;-65
2024/04/25 01:28:56;;;;;;;;;;;;;;;9.95;67.47;100004.94;5472831;25;100831;-65
2024/04/25 01:31:25;;;;;;;;;;;;;;;9.89;67.40;100004.38;5490704;25;96014;-66
2024/04/25 01:33:54;;;;;;;;;;;;;;;9.95;66.47;100006.72;5480480;25;94672;-66
2024/04/25 01:36:22;;;;;;;;;;;;;;;9.88;66.83;100005.28;5485791;25;95182;-67
2024/04/25 01:38:50;;;;;;;;;;;;;;;9.90;67.03;100008.72;5474264;25;99908;-66
2024/04/25 01:41:18;;;;;;;;;;;;;;;9.68;67.31;100016.72;5481519;25;99914;-67
2024/04/25 01:43:48;;;;;;;;;;;;;;;9.54;68.14;100003.25;5491940;25;95187;-66
2024/04/25 01:46:16;;;;;;;;;;;;;;;9.67;67.74;99998.31;5479213;25;95708;-66
2024/04/25 01:48:46;;;;;;;;;;;;;;;9.75;67.54;100006.75;5485206;25;97169;-66
2024/04/25 01:51:14;;;;;;;;;;;;;;;9.71;67.17;100006.03;5473928;25;99953;-66
2024/04/25 01:53:42;;;;;;;;;;;;;;;9.51;67.86;99998.13;5471441;25;94702;-66
2024/04/25 01:56:10;;;;;;;;;;;;;;;9.61;67.41;100002.06;5471268;25;96723;-66
2024/04/25 01:58:38;;;;;;;;;;;;;;;9.53;67.59;100006.81;5472539;25;96713;-66
2024/04/25 02:01:09;;;;;;;;;;;;;;;9.53;67.80;100006.81;5475137;25;97511;-67
2024/04/25 02:03:36;;;;;;;;;;;;;;;9.48;68.13;100000.88;5477612;25;95319;-66
2024/04/25 02:06:05;;;;;;;;;;;;;;;9.56;67.35;100006.69;5478952;25;95355;-66
2024/04/25 02:08:32;;;;;;;;;;;;;;;9.55;67.22;100002.34;5465995;25;96094;-67
2024/04/25 02:11:00;;;;;;;;;;;;;;;9.49;67.44;100002.59;5470717;25;97106;-66
2024/04/25 02:13:28;;;;;;;;;;;;;;;9.38;68.20;100004.84;5467593;25;97177;-66
2024/04/25 02:15:58;;;;;;;;;;;;;;;9.50;67.88;100001.69;5478785;25;94873;-66
2024/04/25 02:18:29;;;;;;;;;;;;;;;9.55;67.55;100002.34;5472853;25;96615;-67
2024/04/25 02:26:45;;;;;;;;;;;;;;;9.37;66.90;99997.84;5233189;26;97399;-68
2024/04/25 02:29:13;;;;;;;;;;;;;;;9.07;68.08;99997.34;5433142;25;97378;-68
2024/04/25 02:31:41;;;;;;;;;;;;;;;9.00;68.48;100004.63;5475175;25;96590;-66
2024/04/25 02:34:12;;;;;;;;;;;;;;;9.16;68.16;100003.09;5475146;25;94877;-65
2024/04/25 02:36:40;;;;;;;;;;;;;;;9.11;67.57;99997.16;5477991;25;97616;-65
2024/04/25 02:39:09;;;;;;;;;;;;;;;9.19;68.01;99994.19;5469267;25;97327;-66
2024/04/25 02:41:37;;;;;;;;;;;;;;;9.35;67.15;99994.41;5469147;25;99682;-66
2024/04/25 02:44:02;;;;;;;;;;;;;;;9.20;67.92;99995.91;5471259;25;94727;-65
2024/04/25 02:46:30;;;;;;;;;;;;;;;9.28;68.18;99995.59;5471328;25;95244;-66
2024/04/25 02:48:56;;;;;;;;;;;;;;;9.32;67.72;99994.56;5469230;25;99780;-65
2024/04/25 02:51:27;;;;;;;;;;;;;;;9.56;67.10;99986.44;5474439;25;97234;-65
2024/04/25 02:53:52;;;;;;;;;;;;;;;9.70;66.68;99985.84;5467952;25;94949;-66
2024/04/25 02:56:20;;;;;;;;;;;;;;;9.83;65.40;99989.66;5487278;25;95203;-65
2024/04/25 02:58:46;;;;;;;;;;;;;;;10.11;63.73;99988.44;5488575;25;100450;-66
2024/04/25 03:01:14;;;;;;;;;;;;;;;9.91;64.98;99982.25;5483618;25;95584;-65
2024/04/25 03:03:39;;;;;;;;;;;;;;;9.90;64.86;99987.59;5481103;25;96646;-65
2024/04/25 03:06:07;;;;;;;;;;;;;;;9.81;65.33;99986.22;5483122;25;95227;-66
2024/04/25 03:08:35;;;;;;;;;;;;;;;10.06;64.57;99987.75;5488835;25;97307;-65
2024/04/25 03:11:04;;;;;;;;;;;;;;;10.14;64.54;99983.00;5477715;25;97104;-65
2024/04/25 03:13:29;;;;;;;;;;;;;;;10.07;64.37;99992.13;5485668;25;94798;-65
2024/04/25 03:15:57;;;;;;;;;;;;;;;9.97;64.40;99986.41;5476893;25;94946;-65
2024/04/25 03:18:23;;;;;;;;;;;;;;;10.02;64.26;99989.69;5487789;25;96817;-65
2024/04/25 03:20:51;;;;;;;;;;;;;;;9.96;64.39;99987.34;5483103;25;98993;-66
2024/04/25 03:23:16;;;;;;;;;;;;;;;10.00;64.51;99978.34;5487185;25;94815;-66
2024/04/25 03:25:47;;;;;;;;;;;;;;;9.71;65.03;99984.94;5477444;25;94817;-65
2024/04/25 03:28:12;;;;;;;;;;;;;;;9.84;63.72;99986.09;5465816;25;98628;-67
2024/04/25 03:30:40;;;;;;;;;;;;;;;9.97;64.00;99989.06;5479127;25;95850;-66
2024/04/25 03:33:06;;;;;;;;;;;;;;;9.88;64.18;99992.94;5494515;25;94790;-66
2024/04/25 03:35:34;;;;;;;;;;;;;;;9.84;64.07;99990.53;5475315;25;94776;-65
2024/04/25 03:38:02;;;;;;;;;;;;;;;10.02;63.54;99988.84;5493485;25;97235;-66
2024/04/25 03:40:30;;;;;;;;;;;;;;;10.00;63.43;99994.19;5476631;25;99761;-66
2024/04/25 03:43:01;;;;;;;;;;;;;;;10.02;63.59;99988.84;5491958;25;96283;-65
2024/04/25 03:45:28;;;;;;;;;;;;;;;9.99;63.54;99997.72;5487308;25;95169;-65
2024/04/25 03:47:57;;;;;;;;;;;;;;;9.70;64.44;99996.41;5485495;25;96637;-65
2024/04/25 03:50:25;;;;;;;;;;;;;;;9.75;64.51;99990.91;5491869;25;95645;-65
2024/04/25 03:52:53;;;;;;;;;;;;;;;9.83;63.70;99989.66;5485859;25;94726;-65
2024/04/25 03:55:21;;;;;;;;;;;;;;;9.76;63.36;99993.50;5483474;25;94975;-66
2024/04/25 03:57:49;;;;;;;;;;;;;;;9.81;63.37;99985.38;5485100;25;100114;-67
2024/04/25 04:00:19;;;;;;;;;;;;;;;9.88;62.79;99981.53;5478787;25;94708;-67
2024/04/25 04:02:47;;;;;;;;;;;;;;;10.02;62.20;99994.13;5475661;25;94953;-67
2024/04/25 04:05:16;;;;;;;;;;;;;;;9.94;62.76;99991.81;5497188;25;95238;-67
2024/04/25 04:07:44;;;;;;;;;;;;;;;9.92;62.33;99989.22;5478673;25;97210;-66
2024/04/25 04:10:12;;;;;;;;;;;;;;;9.78;62.84;99996.06;5475967;25;99173;-67
2024/04/25 04:12:40;;;;;;;;;;;;;;;9.76;63.18;99996.13;5477468;25;95239;-67
2024/04/25 04:15:08;;;;;;;;;;;;;;;9.76;63.10;99987.34;5490903;25;94882;-68
2024/04/25 04:17:39;;;;;;;;;;;;;;;9.76;63.21;99992.63;5478199;25;97029;-67
2024/04/25 04:20:07;;;;;;;;;;;;;;;9.83;62.65;99991.44;5484640;25;97573;-68
2024/04/25 04:22:35;;;;;;;;;;;;;;;9.82;62.83;99977.38;5486495;25;94814;-67
2024/04/25 04:25:03;;;;;;;;;;;;;;;9.92;62.21;99991.00;5493050;25;95335;-67
2024/04/25 04:27:31;;;;;;;;;;;;;;;9.86;62.23;99993.94;5480443;25;96245;-67
2024/04/25 04:29:59;;;;;;;;;;;;;;;9.90;62.67;99999.03;5486576;25;94924;-66
2024/04/25 04:32:26;;;;;;;;;;;;;;;9.84;62.33;99993.16;5477019;25;94668;-66
2024/04/25 04:34:57;;;;;;;;;;;;;;;9.95;62.31;99990.88;5483894;25;95259;-66
2024/04/25 04:37:25;;;;;;;;;;;;;;;9.93;62.60;99990.94;5480125;25;100107;-66
2024/04/25 04:39:53;;;;;;;;;;;;;;;10.07;62.17;99997.41;5480589;25;97552;-67
2024/04/25 04:42:21;;;;;;;;;;;;;;;10.26;61.77;99995.66;5466612;25;94831;-66
2024/04/25 04:44:49;;;;;;;;;;;;;;;9.97;61.81;99995.19;5480770;25;94857;-67
2024/04/25 04:47:17;;;;;;;;;;;;;;;9.78;63.21;99994.25;5472967;25;99496;-69
2024/04/25 04:49:45;;;;;;;;;;;;;;;9.85;62.83;99992.22;5476636;25;97459;-68
2024/04/25 04:52:18;;;;;;;;;;;;;;;9.94;62.62;99991.81;5473493;25;94988;-67
2024/04/25 04:54:46;;;;;;;;;;;;;;;9.98;62.38;99996.88;5479214;25;94861;-67
2024/04/25 04:57:14;;;;;;;;;;;;;;;10.11;62.57;99993.72;5497589;25;97122;-66
2024/04/25 04:59:42;;;;;;;;;;;;;;;10.17;62.01;99996.09;5479872;25;96913;-66
2024/04/25 05:02:10;;;;;;;;;;;;;;;10.18;62.01;100001.28;5478065;25;97009;-67
2024/04/25 05:04:38;;;;;;;;;;;;;;;10.21;61.84;99998.53;5480309;25;94807;-67
2024/04/25 05:07:06;;;;;;;;;;;;;;;10.27;61.93;100000.03;5478218;25;95685;-69
2024/04/25 05:09:36;;;;;;;;;;;;;;;10.23;62.19;99999.31;5472058;25;94841;-67
2024/04/25 05:12:05;;;;;;;;;;;;;;;10.40;61.38;100001.16;5470641;25;95663;-71
2024/04/25 05:14:33;;;;;;;;;;;;;;;10.18;61.51;99996.00;5477244;25;94815;-68
2024/04/25 05:17:00;;;;;;;;;;;;;;;10.38;61.07;99997.72;5483087;25;96770;-66
2024/04/25 05:19:29;;;;;;;;;;;;;;;10.30;61.64;100002.53;5468323;25;97353;-67
2024/04/25 05:21:57;;;;;;;;;;;;;;;10.35;61.48;100003.16;5463593;25;94785;-67
2024/04/25 05:24:25;;;;;;;;;;;;;;;10.59;60.83;100007.31;5472970;25;95068;-67
2024/04/25 05:26:56;;;;;;;;;;;;;;;10.47;60.65;100012.31;5471285;25;98200;-66
2024/04/25 05:29:24;;;;;;;;;;;;;;;10.55;60.26;100008.38;5470487;25;96106;-68
2024/04/25 05:31:52;;;;;;;;;;;;;;;10.82;59.45;100005.38;5473231;25;95180;-67
2024/04/25 05:34:20;;;;;;;;;;;;;;;10.93;59.02;100008.34;5477147;25;95486;-67
2024/04/25 05:36:48;;;;;;;;;;;;;;;10.67;59.50;100009.59;5469103;25;96846;-67
2024/04/25 05:39:16;;;;;;;;;;;;;;;11.07;58.57;100009.38;5465925;25;95991;-67
2024/04/25 05:41:43;;;;;;;;;;;;;;;11.27;58.03;100011.03;5474543;25;94866;-67
2024/04/25 05:44:14;;;;;;;;;;;;;;;11.23;57.62;100006.81;5475092;25;94828;-67
2024/04/25 05:46:42;;;;;;;;;;;;;;;11.48;56.95;100003.81;5473164;25;96941;-70
2024/04/25 05:49:10;;;;;;;;;;;;;;;11.90;55.41;100011.34;5477512;25;98678;-67
2024/04/25 05:51:38;;;;;;;;;;;;;;;11.77;55.51;99999.69;5479395;25;95390;-68
2024/04/25 05:54:07;;;;;;;;;;;;;;;12.00;55.12;100009.94;5477172;25;95829;-68
2024/04/25 05:56:34;;;;;;;;;;;;;;;11.80;54.97;99999.53;5485787;25;98258;-67
2024/04/25 05:59:02;;;;;;;;;;;;;;;12.10;54.52;100007.66;5485383;25;95933;-67
2024/04/25 06:01:33;;;;;;;;;;;;;;;12.15;54.43;100001.16;5470660;25;95020;-68
2024/04/25 06:04:01;;;;;;;;;;;;;;;12.18;54.17;100003.66;5467490;25;94884;-68
2024/04/25 06:06:29;;;;;;;;;;;;;;;12.18;54.14;100005.44;5457698;25;96397;-66
2024/04/25 06:08:57;;;;;;;;;;;;;;;11.99;54.56;100005.59;5459484;25;96722;-68
2024/04/25 06:11:27;;;;;;;;;;;;;;;12.02;54.53;100013.34;5472719;25;95520;-67
2024/04/25 06:13:55;;;;;;;;;;;;;;;12.21;54.46;100014.06;5468947;25;95372;-67
2024/04/25 06:16:23;;;;;;;;;;;;;;;12.22;54.68;100010.50;5452776;25;97414;-67
2024/04/25 06:18:54;;;;;;;;;;;;;;;12.05;55.85;100010.56;5465767;25;95580;-67
2024/04/25 06:21:21;;;;;;;;;;;;;;;12.14;54.91;100012.69;5452528;25;94827;-66
2024/04/25 06:23:50;;;;;;;;;;;;;;;12.24;54.74;100015.72;5478058;25;94851;-67
2024/04/25 06:26:17;;;;;;;;;;;;;;;12.32;53.69;100011.72;5468265;25;99533;-67
2024/04/25 06:28:46;;;;;;;;;;;;;;;12.28;54.13;100011.94;5478285;25;95711;-69
2024/04/25 06:31:14;;;;;;;;;;;;;;;12.33;54.49;100010.78;5455849;25;97929;-68
2024/04/25 06:33:42;;;;;;;;;;;;;;;12.36;53.96;100009.75;5474648;25;94984;-68
2024/04/25 06:36:13;;;;;;;;;;;;;;;12.39;54.13;100006.94;5465695;25;101609;-67
2024/04/25 06:38:41;;;;;;;;;;;;;;;12.58;53.31;100004.13;5474016;25;99825;-67
2024/04/25 06:41:09;;;;;;;;;;;;;;;12.53;53.16;100025.59;5473208;25;94799;-67
2024/04/25 06:43:37;;;;;;;;;;;;;;;12.72;53.30;100013.03;5468130;25;94973;-67
2024/04/25 06:46:07;;;;;;;;;;;;;;;12.69;52.70;100009.69;5471820;25;97126;-67
2024/04/25 06:48:35;;;;;;;;;;;;;;;12.65;53.02;100008.16;5470961;25;99468;-68
2024/04/25 06:51:04;;;;;;;;;;;;;;;12.55;53.36;100014.88;5465023;25;95420;-67
2024/04/25 06:53:35;;;;;;;;;;;;;;;12.25;54.07;100018.28;5469283;25;94900;-68
2024/04/25 06:56:03;;;;;;;;;;;;;;;12.39;53.54;100020.19;5471959;25;95615;-67
2024/04/25 06:58:31;;;;;;;;;;;;;;;12.68;52.84;100021.22;5456431;25;96776;-67
2024/04/25 07:00:59;;;;;;;;;;;;;;;12.44;53.33;100025.22;5472879;25;95180;-67
2024/04/25 07:03:27;;;;;;;;;;;;;;;12.48;53.43;100029.41;5486172;25;96537;-66
2024/04/25 07:06:10;;;;;;;;;;;;;;;12.47;53.78;100025.09;5464160;25;95662;-70
2024/04/25 07:08:40;;;;;;;;;;;;;;;12.06;54.59;100027.28;5452273;25;98692;-67
2024/04/25 07:11:09;;;;;;;;;;;;;;;12.18;54.45;100031.94;5473961;25;94809;-68
2024/04/25 07:13:37;;;;;;;;;;;;;;;12.20;54.65;100032.72;5476681;25;95356;-68
2024/04/25 07:16:05;;;;;;;;;;;;;;;12.09;54.82;100027.97;5472576;25;98324;-67
2024/04/25 07:18:33;;;;;;;;;;;;;;;12.49;54.12;100034.63;5479928;25;97207;-68
2024/04/25 07:21:01;;;;;;;;;;;;;;;12.18;54.44;100032.78;5476614;25;98478;-67
2024/04/25 07:23:29;;;;;;;;;;;;;;;12.20;55.26;100041.53;5472356;25;96102;-67
2024/04/25 07:26:00;;;;;;;;;;;;;;;12.16;54.98;100039.09;5481426;25;95654;-66
2024/04/25 07:28:29;;;;;;;;;;;;;;;12.10;55.54;100039.44;5464543;25;96774;-68
2024/04/25 07:30:58;;;;;;;;;;;;;;;12.45;54.31;100037.56;5468077;25;94686;-67
2024/04/25 07:33:26;;;;;;;;;;;;;;;12.34;54.67;100038.97;5463538;25;95326;-69
2024/04/25 07:35:54;;;;;;;;;;;;;;;12.45;54.22;100038.41;5471756;25;95602;-68
2024/04/25 07:38:22;;;;;;;;;;;;;;;12.42;54.90;100035.06;5473219;25;96807;-67
2024/04/25 07:40:51;;;;;;;;;;;;;;;12.36;54.82;100042.41;5474846;25;95221;-68
2024/04/25 07:43:22;;;;;;;;;;;;;;;12.25;54.75;100044.78;5479734;25;94768;-68
2024/04/25 07:45:50;;;;;;;;;;;;;;;12.26;54.76;100035.03;5460730;25;96044;-67
2024/04/25 07:48:18;;;;;;;;;;;;;;;12.02;55.71;100036.31;5468575;25;98709;-70
2024/04/25 07:50:46;;;;;;;;;;;;;;;12.01;56.62;100043.44;5459510;25;95190;-69
2024/04/25 07:53:14;;;;;;;;;;;;;;;11.94;56.75;100039.41;5482813;25;95634;-68
2024/04/25 07:55:42;;;;;;;;;;;;;;;12.21;55.24;100042.34;5466921;25;97182;-69
2024/04/25 07:58:10;;;;;;;;;;;;;;;12.16;55.33;100041.75;5481087;25;97187;-68
2024/04/25 08:00:41;;;;;;;;;;;;;;;12.34;55.39;100049.56;5470450;25;95018;-68
2024/04/25 08:03:10;;;;;;;;;;;;;;;12.23;55.59;100049.28;5486641;25;94817;-67
2024/04/25 08:05:37;;;;;;;;;;;;;;;12.70;53.87;100048.50;5471774;25;95656;-67
2024/04/25 08:08:07;;;;;;;;;;;;;;;12.58;53.75;100047.41;5474327;25;94801;-67
2024/04/25 08:10:35;;;;;;;;;;;;;;;12.84;53.94;100045.09;5471711;25;94792;-66
2024/04/25 08:13:03;;;;;;;;;;;;;;;12.99;52.50;100047.75;5472939;25;94955;-67
2024/04/25 08:15:32;;;;;;;;;;;;;;;12.87;52.26;100045.78;5462524;25;99005;-66
2024/04/25 08:18:02;;;;;;;;;;;;;;;13.25;52.07;100045.47;5462165;25;96350;-68
2024/04/25 08:20:30;;;;;;;;;;;;;;;13.36;51.17;100045.69;5480401;25;94728;-65
2024/04/25 08:22:59;;;;;;;;;;;;;;;13.61;50.15;100042.44;5463813;25;96405;-66
2024/04/25 08:25:26;;;;;;;;;;;;;;;13.80;50.00;100038.59;5461956;25;100840;-66
2024/04/25 08:27:55;;;;;;;;;;;;;;;13.65;48.62;100046.66;5471624;25;97786;-66
2024/04/25 08:30:24;;;;;;;;;;;;;;;13.96;48.70;100046.50;5476926;25;94785;-66
2024/04/25 08:32:52;;;;;;;;;;;;;;;14.24;48.03;100043.03;5469730;25;94902;-66
2024/04/25 08:35:23;;;;;;;;;;;;;;;14.58;47.56;100044.47;5465794;25;97840;-66
2024/04/25 08:37:51;;;;;;;;;;;;;;;14.14;47.67;100044.53;5478052;25;99780;-66
2024/04/25 08:40:19;;;;;;;;;;;;;;;14.12;48.35;100041.97;5475671;25;95129;-66
2024/04/25 08:42:50;;;;;;;;;;;;;;;14.02;48.04;100046.16;5474088;25;94957;-66
2024/04/25 08:45:18;;;;;;;;;;;;;;;13.91;48.21;100052.09;5477694;25;97080;-66
2024/04/25 08:47:46;;;;;;;;;;;;;;;13.83;49.09;100048.19;5476909;25;99493;-65
2024/04/25 08:50:15;;;;;;;;;;;;;;;13.57;49.31;100049.75;5470601;25;94664;-65
2024/04/25 08:52:46;;;;;;;;;;;;;;;13.80;48.69;100051.88;5472682;25;94750;-66
2024/04/25 08:55:17;;;;;;;;;;;;;;;14.46;47.12;100046.09;5469960;25;97986;-65
2024/04/25 08:57:45;;;;;;;;;;;;;;;15.00;45.71;100041.72;5472240;25;96783;-66
2024/04/25 09:00:13;;;;;;;;;;;;;;;14.93;45.51;100040.41;5480477;25;94836;-65
2024/04/25 09:02:41;;;;;;;;;;;;;;;14.90;45.28;100034.47;5474314;25;95523;-66
2024/04/25 09:05:10;;;;;;;;;;;;;;;14.64;45.39;100039.59;5475649;25;99483;-65
2024/04/25 09:07:39;;;;;;;;;;;;;;;14.24;46.64;100037.72;5467505;25;100458;-65
2024/04/25 09:10:10;;;;;;;;;;;;;;;14.09;47.16;100041.31;5473655;25;94897;-66
2024/04/25 09:12:38;;;;;;;;;;;;;;;14.40;47.04;100033.19;5478399;25;94735;-66
2024/04/25 09:15:06;;;;;;;;;;;;;;;15.26;44.88;100032.03;5471509;25;94790;-66
2024/04/25 09:17:34;;;;;;;;;;;;;;;15.48;43.61;100029.69;5480318;25;96919;-65
2024/04/25 09:20:02;;;;;;;;;;;;;;;15.38;43.35;100031.22;5480086;25;94785;-65
2024/04/25 09:22:30;;;;;;;;;;;;;;;15.91;42.36;100032.13;5472262;25;95012;-65
2024/04/25 09:24:58;;;;;;;;;;;;;;;15.60;42.38;100022.69;5477481;25;99892;-65
2024/04/25 09:27:29;;;;;;;;;;;;;;;15.37;42.05;100031.31;5473954;25;97057;-65
2024/04/25 09:29:57;;;;;;;;;;;;;;;15.00;42.89;100025.78;5479275;25;94767;-65
2024/04/25 09:32:24;;;;;;;;;;;;;;;15.19;42.74;100030.75;5476914;25;95333;-66
2024/04/25 09:34:52;;;;;;;;;;;;;;;14.99;43.44;100028.53;5469721;25;97321;-66
2024/04/25 09:37:21;;;;;;;;;;;;;;;14.56;44.78;100025.97;5475143;25;96703;-66
2024/04/25 09:39:49;;;;;;;;;;;;;;;14.59;44.50;100028.41;5471723;25;94890;-67
2024/04/25 09:42:17;;;;;;;;;;;;;;;14.29;45.12;100032.97;5475534;25;95535;-66
2024/04/25 09:44:48;;;;;;;;;;;;;;;14.22;45.88;100032.50;5469895;25;95388;-66
2024/04/25 09:47:20;;;;;;;;;;;;;;;14.33;45.29;100034.47;5472272;25;96303;-66
2024/04/25 09:49:52;;;;;;;;;;;;;;;13.85;46.45;100030.34;5472906;25;94703;-65
2024/04/25 09:52:21;;;;;;;;;;;;;;;13.76;47.51;100029.13;5474478;25;94885;-67
2024/04/25 09:54:50;;;;;;;;;;;;;;;13.71;47.77;100025.91;5460207;25;97636;-66
2024/04/25 09:57:19;;;;;;;;;;;;;;;13.33;50.09;100027.28;5475860;25;97318;-65
2024/04/25 09:59:52;;;;;;;;;;;;;;;12.34;53.83;100044.25;5469372;25;94812;-65
2024/04/25 10:02:22;;;;;;;;;;;;;;;12.72;52.96;100036.03;5462559;25;96089;-66
2024/04/25 10:04:50;;;;;;;;;;;;;;;12.43;53.22;100040.28;5478794;25;97421;-66
2024/04/25 10:07:19;;;;;;;;;;;;;;;12.56;53.25;100037.81;5478733;25;99719;-66
2024/04/25 10:09:48;;;;;;;;;;;;;;;13.05;52.40;100034.16;5460557;25;94682;-66
2024/04/25 10:12:20;;;;;;;;;;;;;;;12.69;52.46;100037.06;5455145;25;95225;-65
2024/04/25 10:14:57;;;;;;;;;;;;;;;12.92;51.98;100038.44;5475382;25;96742;-67
2024/04/25 10:17:26;;;;;;;;;;;;;;;13.71;49.61;100035.66;5466043;25;97209;-65
2024/04/25 10:19:54;;;;;;;;;;;;;;;14.28;48.47;100032.13;5474833;25;95153;-66
2024/04/25 10:22:22;;;;;;;;;;;;;;;15.37;44.83;100021.53;5481020;25;94844;-66
2024/04/25 10:24:52;;;;;;;;;;;;;;;15.84;42.60;100028.16;5465751;25;95514;-66
2024/04/25 10:27:24;;;;;;;;;;;;;;;16.04;40.71;100021.47;5471638;25;96828;-66
2024/04/25 10:29:53;;;;;;;;;;;;;;;15.89;39.75;100034.03;5465503;25;94906;-66
2024/04/25 10:32:23;;;;;;;;;;;;;;;15.19;40.86;100030.75;5469869;25;94720;-66
2024/04/25 10:34:52;;;;;;;;;;;;;;;14.46;42.11;100047.88;5476655;25;97078;-66
2024/04/25 10:37:20;;;;;;;;;;;;;;;14.63;42.06;100034.41;5471324;25;98215;-65
2024/04/25 10:39:48;;;;;;;;;;;;;;;14.58;42.29;100034.69;5471474;25;95646;-66
2024/04/25 10:42:16;;;;;;;;;;;;;;;14.53;42.73;100030.59;5460615;25;94840;-65
2024/04/25 10:44:48;;;;;;;;;;;;;;;14.64;43.08;100033.44;5459839;25;96875;-65
2024/04/25 10:47:16;;;;;;;;;;;;;;;14.49;43.71;100034.44;5458063;25;99033;-66
2024/04/25 10:49:46;;;;;;;;;;;;;;;14.77;42.81;100034.38;5466183;25;98393;-66
2024/04/25 10:52:15;;;;;;;;;;;;;;;14.89;42.92;100033.59;5462035;25;94881;-66
2024/04/25 10:54:43;;;;;;;;;;;;;;;15.68;40.09;100022.19;5453510;25;99414;-67
2024/04/25 10:57:11;;;;;;;;;;;;;;;15.56;39.53;100028.34;5471539;25;99320;-66
2024/04/25 10:59:39;;;;;;;;;;;;;;;15.57;40.34;100025.56;5474961;25;94757;-66
2024/04/25 11:02:08;;;;;;;;;;;;;;;15.53;39.60;100024.94;5470457;25;95348;-67
2024/04/25 11:04:37;;;;;;;;;;;;;;;15.37;40.06;100023.34;5472906;25;97713;-67
2024/04/25 11:07:08;;;;;;;;;;;;;;;15.30;40.22;100027.38;5476863;25;97148;-66
2024/04/25 11:09:37;;;;;;;;;;;;;;;15.38;40.07;100025.91;5472378;25;95210;-66
2024/04/25 11:12:05;;;;;;;;;;;;;;;15.23;40.70;100034.91;5464543;25;95117;-66
2024/04/25 11:14:35;;;;;;;;;;;;;;;14.05;44.96;100034.47;5467977;25;96766;-65
2024/04/25 11:17:03;;;;;;;;;;;;;;;12.08;50.99;100047.44;5477243;25;95682;-65
2024/04/25 11:19:32;;;;;;;;;;;;;;;11.87;52.56;100052.09;5466168;25;94746;-65
2024/04/25 11:22:00;;;;;;;;;;;;;;;11.90;52.71;100053.72;5473717;25;94783;-65
2024/04/25 11:24:32;;;;;;;;;;;;;;;11.98;52.77;100056.81;5462851;25;98845;-66
2024/04/25 11:27:02;;;;;;;;;;;;;;;11.97;52.83;100060.41;5460942;25;99605;-66
2024/04/25 11:29:30;;;;;;;;;;;;;;;11.67;53.92;100051.38;5474471;25;95335;-66
2024/04/25 11:31:58;;;;;;;;;;;;;;;12.05;52.87;100050.28;5473578;25;94811;-66
2024/04/25 11:34:26;;;;;;;;;;;;;;;11.37;55.17;100049.31;5466292;25;96632;-66
2024/04/25 11:37:00;;;;;;;;;;;;;;;11.61;55.63;100049.03;5482496;25;100543;-65
2024/04/25 11:39:30;;;;;;;;;;;;;;;11.47;54.55;100060.31;5463410;25;97072;-66
2024/04/25 11:41:59;;;;;;;;;;;;;;;11.66;54.78;100052.28;5480584;25;94780;-67
2024/04/25 11:44:29;;;;;;;;;;;;;;;11.23;56.32;100054.41;5480772;25;95937;-67
2024/04/25 11:46:57;;;;;;;;;;;;;;;12.03;54.87;100052.13;5469888;25;97632;-67
2024/04/25 11:49:25;;;;;;;;;;;;;;;12.29;53.81;100053.41;5474653;25;97274;-68
2024/04/25 11:51:53;;;;;;;;;;;;;;;12.82;51.43;100046.97;5475110;25;97573;-68
2024/04/25 11:54:21;;;;;;;;;;;;;;;13.14;49.41;100041.59;5481128;25;99886;-67
2024/04/25 11:56:51;;;;;;;;;;;;;;;12.63;50.60;100040.03;5477045;25;96809;-67
2024/04/25 11:59:19;;;;;;;;;;;;;;;12.81;50.51;100035.50;5479574;25;94727;-67
2024/04/25 12:01:47;;;;;;;;;;;;;;;13.37;49.80;100031.47;5469412;25;95086;-67
2024/04/25 12:04:15;;;;;;;;;;;;;;;13.94;47.94;100033.31;5467718;25;97135;-68
2024/04/25 12:06:43;;;;;;;;;;;;;;;13.82;46.56;100034.06;5468710;25;96805;-68
2024/04/25 12:09:11;;;;;;;;;;;;;;;13.53;47.85;100032.28;5474078;25;94855;-67
2024/04/25 12:11:41;;;;;;;;;;;;;;;14.25;46.53;100021.66;5463573;25;95035;-69
2024/04/25 12:14:11;;;;;;;;;;;;;;;15.05;45.24;100022.81;5475909;25;96891;-68
2024/04/25 12:16:39;;;;;;;;;;;;;;;15.64;42.88;100015.34;5479515;25;100258;-69
2024/04/25 12:19:08;;;;;;;;;;;;;;;16.03;40.54;100017.94;5472531;25;95117;-68
2024/04/25 12:21:36;;;;;;;;;;;;;;;16.23;40.12;100020.06;5470758;25;95471;-68
2024/04/25 12:24:04;;;;;;;;;;;;;;;16.88;39.87;100021.69;5473619;25;97094;-68
2024/04/25 12:26:32;;;;;;;;;;;;;;;16.46;38.21;100017.59;5467168;25;94810;-68
2024/04/25 12:29:00;;;;;;;;;;;;;;;16.06;38.39;100022.22;5481529;25;95063;-68
2024/04/25 12:31:31;;;;;;;;;;;;;;;15.90;38.60;100022.41;5474225;25;95034;-68
2024/04/25 12:33:59;;;;;;;;;;;;;;;16.05;38.07;100021.38;5465931;25;100279;-67
2024/04/25 12:36:27;;;;;;;;;;;;;;;14.49;40.24;100014.00;5473715;25;97132;-68
2024/04/25 12:38:56;;;;;;;;;;;;;;;13.97;41.09;100016.34;5473438;25;95658;-67
2024/04/25 12:41:23;;;;;;;;;;;;;;;14.71;39.90;100013.47;5478866;25;94904;-68
2024/04/25 12:43:52;;;;;;;;;;;;;;;15.04;38.84;100013.09;5474016;25;99406;-68
2024/04/25 12:46:20;;;;;;;;;;;;;;;15.39;37.89;100016.13;5475224;25;100252;-69
2024/04/25 12:48:50;;;;;;;;;;;;;;;15.84;37.23;100009.50;5475798;25;95078;-68
2024/04/25 12:51:18;;;;;;;;;;;;;;;15.96;36.91;100016.66;5478389;25;94703;-67
2024/04/25 12:53:46;;;;;;;;;;;;;;;15.14;36.11;100019.56;5473036;25;98414;-68